Terminal Aerodrome Forecast
Issued by NWS

Home | Current Version | Previous Version | Graphics & Text | Print | Product List | Glossary On
Versions: 1 2 3 4 5 6 7 8 9 10 11 12 13 14
000
FTUS41 KCLE 191720
TAFFDY
TAF
KFDY 191720Z 1918/2018 29012G18KT P6SM SCT025
     FM192100 29009KT P6SM FEW030 SCT200
     FM192300 29005KT P6SM FEW060 FEW250
     FM201400 19004KT P6SM FEW250=

USA.gov is the U.S. government's official web portal to all federal, state and local government web resources and services.